LYBE/BEG METAR and TAF weather

Enter ICAO airport designator
Station Type Date Time Source
LYBE METAR 2020/02/21 00:00 UTC NOAA

LYBE 210000Z 21004KT 6000 NSC 02/01 Q1024 NOSIG


Station Type Date Time Source
LYBE Decoded METAR 2020/02/21 00:00 UTC NOAA

Beograd / Surcin, Serbia and Montenegro (LYBE) 44-49N 020-17E 99M
Feb 20, 2020 - 07:00 PM EST / 2020.02.21 0000 UTC
Wind: from the SSW (210 degrees) at 5 MPH (4 KT):0
Visibility: 3 mile(s):0
Temperature: 35 F (2 C)
Windchill: 30 F (-1 C):1
Dew Point: 33 F (1 C)
Relative Humidity: 93%
Pressure (altimeter): 30.24 in. Hg (1024 hPa)
ob: LYBE 210000Z 21004KT 6000 NSC 02/01 Q1024 NOSIG
cycle: 0

Station Type Date Time Source
LYBE TAF 2020/02/20 18:21 UTC NOAA

TAF LYBE 201700Z 2018/2118 25005KT 9999 SCT040 TX08/2113Z TNM00/2105Z
TEMPO 2103/2107 3000 BR
BECMG 2111/2113 27015KT

Example: see airport list